sensor_id;sensor_type;location;lat;lon;timestamp;pressure;altitude;pressure_sealevel;temperature;humidity
11124;BME280;5616;42.692;23.312;2024-01-16T00:00:02;93822.44;;;4.92;63.09
11124;BME280;5616;42.692;23.312;2024-01-16T00:02:28;93818.34;;;4.91;64.75
11124;BME280;5616;42.692;23.312;2024-01-16T00:04:53;93831.84;;;4.92;63.41
11124;BME280;5616;42.692;23.312;2024-01-16T00:07:19;93836.19;;;4.91;64.90
11124;BME280;5616;42.692;23.312;2024-01-16T00:09:44;93834.63;;;4.90;64.87
11124;BME280;5616;42.692;23.312;2024-01-16T00:12:10;93847.91;;;4.92;62.44
11124;BME280;5616;42.692;23.312;2024-01-16T00:14:36;93847.19;;;4.85;63.19
11124;BME280;5616;42.692;23.312;2024-01-16T00:17:02;93828.94;;;4.88;64.19
11124;BME280;5616;42.692;23.312;2024-01-16T00:19:28;93840.50;;;4.91;63.65
11124;BME280;5616;42.692;23.312;2024-01-16T00:21:53;93842.19;;;4.97;62.13
11124;BME280;5616;42.692;23.312;2024-01-16T00:24:19;93843.53;;;5.00;62.94
11124;BME280;5616;42.692;23.312;2024-01-16T00:26:44;93841.56;;;5.02;63.42
11124;BME280;5616;42.692;23.312;2024-01-16T00:29:11;93839.94;;;5.07;62.46
11124;BME280;5616;42.692;23.312;2024-01-16T00:31:38;93851.28;;;5.11;63.57
11124;BME280;5616;42.692;23.312;2024-01-16T00:34:04;93852.06;;;5.12;64.19
11124;BME280;5616;42.692;23.312;2024-01-16T00:36:29;93845.81;;;5.08;62.69
11124;BME280;5616;42.692;23.312;2024-01-16T00:38:56;93854.06;;;5.10;64.11
11124;BME280;5616;42.692;23.312;2024-01-16T00:41:21;93857.16;;;5.12;64.67
11124;BME280;5616;42.692;23.312;2024-01-16T00:43:47;93866.16;;;5.14;64.00
11124;BME280;5616;42.692;23.312;2024-01-16T00:46:12;93859.09;;;5.16;64.58
11124;BME280;5616;42.692;23.312;2024-01-16T00:48:38;93841.44;;;5.15;64.49
11124;BME280;5616;42.692;23.312;2024-01-16T00:51:04;93857.88;;;5.19;63.72
11124;BME280;5616;42.692;23.312;2024-01-16T00:53:29;93863.75;;;5.19;64.79
11124;BME280;5616;42.692;23.312;2024-01-16T00:55:55;93866.13;;;5.21;65.17
11124;BME280;5616;42.692;23.312;2024-01-16T00:58:23;93870.78;;;5.24;65.93
11124;BME280;5616;42.692;23.312;2024-01-16T01:00:49;93865.69;;;5.24;66.83
11124;BME280;5616;42.692;23.312;2024-01-16T01:03:15;93871.94;;;5.28;66.06
11124;BME280;5616;42.692;23.312;2024-01-16T01:05:40;93879.00;;;5.26;66.19
11124;BME280;5616;42.692;23.312;2024-01-16T01:08:06;93892.72;;;5.25;65.56
11124;BME280;5616;42.692;23.312;2024-01-16T01:10:31;93889.19;;;5.26;65.15
11124;BME280;5616;42.692;23.312;2024-01-16T01:12:57;93898.97;;;5.29;66.09
11124;BME280;5616;42.692;23.312;2024-01-16T01:15:22;93868.78;;;5.26;64.07
11124;BME280;5616;42.692;23.312;2024-01-16T01:17:49;93891.13;;;5.30;64.71
11124;BME280;5616;42.692;23.312;2024-01-16T01:20:15;93874.63;;;5.33;63.59
11124;BME280;5616;42.692;23.312;2024-01-16T01:22:41;93869.09;;;5.36;64.65
11124;BME280;5616;42.692;23.312;2024-01-16T01:25:07;93868.34;;;5.35;64.28
11124;BME280;5616;42.692;23.312;2024-01-16T01:27:33;93873.03;;;5.32;64.40
11124;BME280;5616;42.692;23.312;2024-01-16T01:29:58;93864.84;;;5.30;64.63
11124;BME280;5616;42.692;23.312;2024-01-16T01:32:24;93860.09;;;5.33;63.54
11124;BME280;5616;42.692;23.312;2024-01-16T01:34:49;93869.69;;;5.38;63.96
11124;BME280;5616;42.692;23.312;2024-01-16T01:37:14;93869.09;;;5.36;64.56
11124;BME280;5616;42.692;23.312;2024-01-16T01:39:40;93877.31;;;5.38;64.35
11124;BME280;5616;42.692;23.312;2024-01-16T01:42:06;93854.81;;;5.35;62.75
11124;BME280;5616;42.692;23.312;2024-01-16T01:44:31;93863.63;;;5.32;62.88
11124;BME280;5616;42.692;23.312;2024-01-16T01:46:58;93873.03;;;5.32;63.73
11124;BME280;5616;42.692;23.312;2024-01-16T01:49:23;93847.41;;;5.27;62.79
11124;BME280;5616;42.692;23.312;2024-01-16T01:51:50;93876.31;;;5.21;64.46
11124;BME280;5616;42.692;23.312;2024-01-16T01:54:16;93888.06;;;5.22;63.92
11124;BME280;5616;42.692;23.312;2024-01-16T01:56:44;93875.88;;;5.24;63.98
11124;BME280;5616;42.692;23.312;2024-01-16T01:59:10;93855.13;;;5.20;62.38
11124;BME280;5616;42.692;23.312;2024-01-16T02:01:36;93866.13;;;5.21;64.75
11124;BME280;5616;42.692;23.312;2024-01-16T02:04:03;93884.09;;;5.26;64.84
11124;BME280;5616;42.692;23.312;2024-01-16T02:06:29;93862.13;;;5.25;63.89
11124;BME280;5616;42.692;23.312;2024-01-16T02:08:55;93864.66;;;5.31;64.15
11124;BME280;5616;42.692;23.312;2024-01-16T02:11:20;93873.78;;;5.39;63.96
11124;BME280;5616;42.692;23.312;2024-01-16T02:13:46;93876.47;;;5.44;63.29
11124;BME280;5616;42.692;23.312;2024-01-16T02:16:19;93869.41;;;5.46;63.90
11124;BME280;5616;42.692;23.312;2024-01-16T02:18:45;93883.50;;;5.49;63.85
11124;BME280;5616;42.692;23.312;2024-01-16T02:21:12;93890.91;;;5.50;63.64
11124;BME280;5616;42.692;23.312;2024-01-16T02:23:40;93898.72;;;5.55;64.67
11124;BME280;5616;42.692;23.312;2024-01-16T02:26:06;93896.75;;;5.57;63.91
11124;BME280;5616;42.692;23.312;2024-01-16T02:28:32;93899.09;;;5.59;63.58
11124;BME280;5616;42.692;23.312;2024-01-16T02:30:57;93887.66;;;5.61;64.46
11124;BME280;5616;42.692;23.312;2024-01-16T02:33:23;93902.97;;;5.61;63.54
11124;BME280;5616;42.692;23.312;2024-01-16T02:35:48;93923.00;;;5.64;64.13
11124;BME280;5616;42.692;23.312;2024-01-16T02:38:14;93901.00;;;5.63;63.32
11124;BME280;5616;42.692;23.312;2024-01-16T02:40:40;93911.22;;;5.63;63.50
11124;BME280;5616;42.692;23.312;2024-01-16T02:43:06;93916.88;;;5.65;66.49
11124;BME280;5616;42.692;23.312;2024-01-16T02:45:32;93915.88;;;5.66;64.38
11124;BME280;5616;42.692;23.312;2024-01-16T02:47:58;93929.19;;;5.68;64.04
11124;BME280;5616;42.692;23.312;2024-01-16T02:50:23;93947.22;;;5.73;65.47
11124;BME280;5616;42.692;23.312;2024-01-16T02:52:49;93957.59;;;5.78;65.70
11124;BME280;5616;42.692;23.312;2024-01-16T02:55:14;93971.88;;;5.79;66.24
11124;BME280;5616;42.692;23.312;2024-01-16T02:57:40;93969.19;;;5.74;64.89
11124;BME280;5616;42.692;23.312;2024-01-16T03:00:05;93975.88;;;5.75;64.31
11124;BME280;5616;42.692;23.312;2024-01-16T03:02:33;93975.22;;;5.80;65.32
11124;BME280;5616;42.692;23.312;2024-01-16T03:04:58;93982.69;;;5.81;65.00
11124;BME280;5616;42.692;23.312;2024-01-16T03:07:24;93985.22;;;5.81;64.85
11124;BME280;5616;42.692;23.312;2024-01-16T03:09:49;93987.34;;;5.84;66.97
11124;BME280;5616;42.692;23.312;2024-01-16T03:12:15;94000.13;;;5.84;68.60
11124;BME280;5616;42.692;23.312;2024-01-16T03:14:40;94007.22;;;5.82;70.22
11124;BME280;5616;42.692;23.312;2024-01-16T03:17:06;94022.50;;;5.89;71.07
11124;BME280;5616;42.692;23.312;2024-01-16T03:19:32;94029.53;;;5.94;72.12
11124;BME280;5616;42.692;23.312;2024-01-16T03:21:57;94033.84;;;5.93;72.52
11124;BME280;5616;42.692;23.312;2024-01-16T03:24:23;94036.16;;;5.95;71.46
11124;BME280;5616;42.692;23.312;2024-01-16T03:26:49;94038.88;;;6.00;72.07
11124;BME280;5616;42.692;23.312;2024-01-16T03:29:14;94047.94;;;5.96;71.89
11124;BME280;5616;42.692;23.312;2024-01-16T03:31:40;94055.78;;;6.01;72.40
11124;BME280;5616;42.692;23.312;2024-01-16T03:34:06;94056.50;;;6.08;70.53
11124;BME280;5616;42.692;23.312;2024-01-16T03:36:34;94075.34;;;6.07;71.58
11124;BME280;5616;42.692;23.312;2024-01-16T03:38:59;94069.03;;;6.09;70.52
11124;BME280;5616;42.692;23.312;2024-01-16T03:41:24;94086.75;;;6.04;69.69
11124;BME280;5616;42.692;23.312;2024-01-16T03:43:50;94086.78;;;5.98;70.32
11124;BME280;5616;42.692;23.312;2024-01-16T03:46:15;94102.69;;;6.00;70.14
11124;BME280;5616;42.692;23.312;2024-01-16T03:48:42;94108.41;;;5.95;69.56
11124;BME280;5616;42.692;23.312;2024-01-16T03:51:08;94116.31;;;5.94;69.77
11124;BME280;5616;42.692;23.312;2024-01-16T03:53:34;94105.50;;;5.91;69.01
11124;BME280;5616;42.692;23.312;2024-01-16T03:55:59;94112.81;;;5.88;70.00
11124;BME280;5616;42.692;23.312;2024-01-16T03:58:25;94120.06;;;5.84;70.22
11124;BME280;5616;42.692;23.312;2024-01-16T04:00:50;94141.31;;;5.78;69.94
11124;BME280;5616;42.692;23.312;2024-01-16T04:03:16;94148.97;;;5.78;68.71
11124;BME280;5616;42.692;23.312;2024-01-16T04:05:42;94150.56;;;5.73;68.92
11124;BME280;5616;42.692;23.312;2024-01-16T04:08:08;94163.53;;;5.71;69.50
11124;BME280;5616;42.692;23.312;2024-01-16T04:10:33;94167.53;;;5.54;68.67
11124;BME280;5616;42.692;23.312;2024-01-16T04:13:02;94163.22;;;5.55;68.94
11124;BME280;5616;42.692;23.312;2024-01-16T04:15:27;94170.94;;;5.48;67.84
11124;BME280;5616;42.692;23.312;2024-01-16T04:17:54;94160.94;;;5.40;67.82
11124;BME280;5616;42.692;23.312;2024-01-16T04:20:19;94171.63;;;5.24;69.80
11124;BME280;5616;42.692;23.312;2024-01-16T04:22:45;94169.84;;;5.31;69.35
11124;BME280;5616;42.692;23.312;2024-01-16T04:25:11;94181.44;;;5.27;67.90
11124;BME280;5616;42.692;23.312;2024-01-16T04:27:36;94186.69;;;5.32;68.31
11124;BME280;5616;42.692;23.312;2024-01-16T04:30:02;94192.78;;;5.31;68.79
11124;BME280;5616;42.692;23.312;2024-01-16T04:32:28;94199.69;;;5.24;67.26
11124;BME280;5616;42.692;23.312;2024-01-16T04:34:54;94198.69;;;5.25;69.14
11124;BME280;5616;42.692;23.312;2024-01-16T04:37:19;94200.66;;;5.23;68.43
11124;BME280;5616;42.692;23.312;2024-01-16T04:39:44;94212.84;;;5.21;69.01
11124;BME280;5616;42.692;23.312;2024-01-16T04:42:10;94213.41;;;5.23;68.22
11124;BME280;5616;42.692;23.312;2024-01-16T04:44:37;94225.75;;;5.26;66.59
11124;BME280;5616;42.692;23.312;2024-01-16T04:47:02;94240.25;;;5.25;67.15
11124;BME280;5616;42.692;23.312;2024-01-16T04:49:28;94255.59;;;5.19;66.69
11124;BME280;5616;42.692;23.312;2024-01-16T04:51:53;94260.31;;;5.15;67.17
11124;BME280;5616;42.692;23.312;2024-01-16T04:54:19;94264.84;;;5.00;66.82
11124;BME280;5616;42.692;23.312;2024-01-16T04:56:44;94285.03;;;5.02;68.42
11124;BME280;5616;42.692;23.312;2024-01-16T04:59:10;94285.44;;;4.99;66.26
11124;BME280;5616;42.692;23.312;2024-01-16T05:01:35;94295.22;;;4.88;65.83
11124;BME280;5616;42.692;23.312;2024-01-16T05:04:00;94298.19;;;4.85;65.94
11124;BME280;5616;42.692;23.312;2024-01-16T05:06:26;94308.97;;;4.74;66.04
11124;BME280;5616;42.692;23.312;2024-01-16T05:08:51;94305.84;;;4.72;66.88
11124;BME280;5616;42.692;23.312;2024-01-16T05:11:18;94317.22;;;4.70;66.97
11124;BME280;5616;42.692;23.312;2024-01-16T05:13:43;94322.69;;;4.60;67.44
11124;BME280;5616;42.692;23.312;2024-01-16T05:16:09;94320.91;;;4.67;67.72
11124;BME280;5616;42.692;23.312;2024-01-16T05:18:35;94331.28;;;4.59;66.10
11124;BME280;5616;42.692;23.312;2024-01-16T05:21:00;94336.03;;;4.62;67.30
11124;BME280;5616;42.692;23.312;2024-01-16T05:23:27;94347.38;;;4.53;66.07
11124;BME280;5616;42.692;23.312;2024-01-16T05:25:53;94363.03;;;4.50;66.99
11124;BME280;5616;42.692;23.312;2024-01-16T05:28:18;94375.78;;;4.50;67.43
11124;BME280;5616;42.692;23.312;2024-01-16T05:30:44;94390.44;;;4.48;65.91
11124;BME280;5616;42.692;23.312;2024-01-16T05:33:09;94386.53;;;4.52;67.99
11124;BME280;5616;42.692;23.312;2024-01-16T05:35:34;94378.53;;;4.55;66.35
11124;BME280;5616;42.692;23.312;2024-01-16T05:38:00;94393.81;;;4.55;66.07
11124;BME280;5616;42.692;23.312;2024-01-16T05:40:26;94398.28;;;4.47;65.72
11124;BME280;5616;42.692;23.312;2024-01-16T05:42:51;94404.97;;;4.54;66.98
11124;BME280;5616;42.692;23.312;2024-01-16T05:45:17;94418.88;;;4.58;67.94
11124;BME280;5616;42.692;23.312;2024-01-16T05:47:43;94422.59;;;4.56;68.08
11124;BME280;5616;42.692;23.312;2024-01-16T05:50:08;94424.88;;;4.37;66.69
11124;BME280;5616;42.692;23.312;2024-01-16T05:52:35;94430.19;;;4.36;66.71
11124;BME280;5616;42.692;23.312;2024-01-16T05:55:01;94437.44;;;4.32;65.23
11124;BME280;5616;42.692;23.312;2024-01-16T05:57:29;94449.94;;;4.34;66.15
11124;BME280;5616;42.692;23.312;2024-01-16T05:59:59;94453.84;;;4.30;64.21
11124;BME280;5616;42.692;23.312;2024-01-16T06:02:27;94462.09;;;4.32;66.88
11124;BME280;5616;42.692;23.312;2024-01-16T06:04:53;94469.34;;;4.35;67.86
11124;BME280;5616;42.692;23.312;2024-01-16T06:07:18;94476.59;;;4.38;67.24
11124;BME280;5616;42.692;23.312;2024-01-16T06:09:44;94476.22;;;4.41;67.54
11124;BME280;5616;42.692;23.312;2024-01-16T06:12:09;94488.94;;;4.41;66.91
11124;BME280;5616;42.692;23.312;2024-01-16T06:14:37;94489.16;;;4.39;65.68
11124;BME280;5616;42.692;23.312;2024-01-16T06:17:03;94502.88;;;4.45;65.21
11124;BME280;5616;42.692;23.312;2024-01-16T06:19:30;94517.41;;;4.51;64.37
11124;BME280;5616;42.692;23.312;2024-01-16T06:21:56;94525.66;;;4.53;65.32
11124;BME280;5616;42.692;23.312;2024-01-16T06:24:22;94534.25;;;4.52;64.90
11124;BME280;5616;42.692;23.312;2024-01-16T06:26:47;94536.22;;;4.50;63.71
11124;BME280;5616;42.692;23.312;2024-01-16T06:29:13;94529.16;;;4.52;65.01
11124;BME280;5616;42.692;23.312;2024-01-16T06:31:38;94539.00;;;4.55;64.47
11124;BME280;5616;42.692;23.312;2024-01-16T06:34:04;94549.19;;;4.55;65.42
11124;BME280;5616;42.692;23.312;2024-01-16T06:36:29;94551.13;;;4.53;61.98
11124;BME280;5616;42.692;23.312;2024-01-16T06:38:54;94549.47;;;4.39;62.93
11124;BME280;5616;42.692;23.312;2024-01-16T06:41:20;94555.78;;;4.43;63.84
11124;BME280;5616;42.692;23.312;2024-01-16T06:43:46;94566.78;;;4.50;65.52
11124;BME280;5616;42.692;23.312;2024-01-16T06:46:12;94563.63;;;4.48;64.67
11124;BME280;5616;42.692;23.312;2024-01-16T06:48:37;94567.97;;;4.54;64.91
11124;BME280;5616;42.692;23.312;2024-01-16T06:51:04;94572.66;;;4.51;62.11
11124;BME280;5616;42.692;23.312;2024-01-16T06:53:30;94587.53;;;4.47;61.80
11124;BME280;5616;42.692;23.312;2024-01-16T06:55:55;94590.59;;;4.36;62.83
11124;BME280;5616;42.692;23.312;2024-01-16T06:58:21;94607.81;;;4.34;64.78
11124;BME280;5616;42.692;23.312;2024-01-16T07:00:47;94609.38;;;4.35;64.21
11124;BME280;5616;42.692;23.312;2024-01-16T07:03:13;94616.88;;;4.43;65.38
11124;BME280;5616;42.692;23.312;2024-01-16T07:05:39;94618.81;;;4.41;62.47
11124;BME280;5616;42.692;23.312;2024-01-16T07:08:09;94620.59;;;4.40;63.77
11124;BME280;5616;42.692;23.312;2024-01-16T07:10:35;94631.34;;;4.36;63.32
11124;BME280;5616;42.692;23.312;2024-01-16T07:13:01;94643.16;;;4.43;63.05
11124;BME280;5616;42.692;23.312;2024-01-16T07:15:27;94642.81;;;4.53;64.54
11124;BME280;5616;42.692;23.312;2024-01-16T07:17:53;94653.63;;;4.55;62.54
11124;BME280;5616;42.692;23.312;2024-01-16T07:20:18;94662.81;;;4.56;63.22
11124;BME280;5616;42.692;23.312;2024-01-16T07:22:44;94670.97;;;4.45;63.48
11124;BME280;5616;42.692;23.312;2024-01-16T07:25:10;94678.03;;;4.50;63.66
11124;BME280;5616;42.692;23.312;2024-01-16T07:27:36;94687.06;;;4.52;62.52
11124;BME280;5616;42.692;23.312;2024-01-16T07:30:04;94698.97;;;4.45;61.57
11124;BME280;5616;42.692;23.312;2024-01-16T07:32:29;94692.31;;;4.44;62.30
11124;BME280;5616;42.692;23.312;2024-01-16T07:34:55;94701.06;;;4.35;63.30
11124;BME280;5616;42.692;23.312;2024-01-16T07:37:20;94714.41;;;4.37;62.85
11124;BME280;5616;42.692;23.312;2024-01-16T07:39:46;94714.03;;;4.40;63.86
11124;BME280;5616;42.692;23.312;2024-01-16T07:42:12;94717.59;;;4.45;66.41
11124;BME280;5616;42.692;23.312;2024-01-16T07:44:37;94711.66;;;4.38;61.32
11124;BME280;5616;42.692;23.312;2024-01-16T07:47:03;94717.91;;;4.36;64.30
11124;BME280;5616;42.692;23.312;2024-01-16T07:49:28;94728.09;;;4.36;65.04
11124;BME280;5616;42.692;23.312;2024-01-16T07:51:54;94743.97;;;4.38;62.32
11124;BME280;5616;42.692;23.312;2024-01-16T07:54:20;94743.97;;;4.38;62.70
11124;BME280;5616;42.692;23.312;2024-01-16T07:56:45;94747.72;;;4.42;63.75
11124;BME280;5616;42.692;23.312;2024-01-16T07:59:11;94758.66;;;4.36;62.27
11124;BME280;5616;42.692;23.312;2024-01-16T08:01:36;94754.78;;;4.40;62.97
11124;BME280;5616;42.692;23.312;2024-01-16T08:04:03;94764.59;;;4.43;61.63
11124;BME280;5616;42.692;23.312;2024-01-16T08:06:29;94763.00;;;4.42;61.29
11124;BME280;5616;42.692;23.312;2024-01-16T08:08:54;94774.66;;;4.51;61.63
11124;BME280;5616;42.692;23.312;2024-01-16T08:11:20;94776.47;;;4.57;62.10
11124;BME280;5616;42.692;23.312;2024-01-16T08:13:45;94789.06;;;4.65;62.75
11124;BME280;5616;42.692;23.312;2024-01-16T08:16:11;94788.34;;;4.71;62.03
11124;BME280;5616;42.692;23.312;2024-01-16T08:18:36;94792.47;;;4.72;61.53
11124;BME280;5616;42.692;23.312;2024-01-16T08:21:02;94796.38;;;4.75;61.49
11124;BME280;5616;42.692;23.312;2024-01-16T08:23:28;94808.97;;;4.76;61.77
11124;BME280;5616;42.692;23.312;2024-01-16T08:25:53;94814.28;;;4.81;62.90
11124;BME280;5616;42.692;23.312;2024-01-16T08:28:19;94802.88;;;4.77;60.16
11124;BME280;5616;42.692;23.312;2024-01-16T08:30:44;94814.97;;;4.69;60.02
11124;BME280;5616;42.692;23.312;2024-01-16T08:33:11;94828.63;;;4.61;58.10
11124;BME280;5616;42.692;23.312;2024-01-16T08:35:37;94832.38;;;4.65;60.86
11124;BME280;5616;42.692;23.312;2024-01-16T08:38:02;94841.63;;;4.66;61.44
11124;BME280;5616;42.692;23.312;2024-01-16T08:40:28;94846.09;;;4.64;61.16
11124;BME280;5616;42.692;23.312;2024-01-16T08:42:53;94847.84;;;4.64;58.48
11124;BME280;5616;42.692;23.312;2024-01-16T08:45:21;94855.69;;;4.62;59.96
11124;BME280;5616;42.692;23.312;2024-01-16T08:47:46;94859.56;;;4.58;60.55
11124;BME280;5616;42.692;23.312;2024-01-16T08:50:12;94864.81;;;4.57;59.68
11124;BME280;5616;42.692;23.312;2024-01-16T08:52:38;94857.13;;;4.50;58.60
11124;BME280;5616;42.692;23.312;2024-01-16T08:55:03;94868.91;;;4.51;59.40
11124;BME280;5616;42.692;23.312;2024-01-16T08:57:29;94877.50;;;4.50;61.31
11124;BME280;5616;42.692;23.312;2024-01-16T08:59:55;94876.28;;;4.46;59.56
11124;BME280;5616;42.692;23.312;2024-01-16T09:02:21;94882.97;;;4.47;59.32
11124;BME280;5616;42.692;23.312;2024-01-16T09:04:47;94873.47;;;4.41;57.61
11124;BME280;5616;42.692;23.312;2024-01-16T09:07:15;94866.47;;;4.43;60.44
11124;BME280;5616;42.692;23.312;2024-01-16T09:09:41;94880.53;;;4.39;58.01
11124;BME280;5616;42.692;23.312;2024-01-16T09:12:08;94882.47;;;4.37;60.38
11124;BME280;5616;42.692;23.312;2024-01-16T09:14:34;94881.38;;;4.46;59.08
11124;BME280;5616;42.692;23.312;2024-01-16T09:16:59;94888.28;;;4.52;58.93
11124;BME280;5616;42.692;23.312;2024-01-16T09:19:25;94886.16;;;4.56;59.94
11124;BME280;5616;42.692;23.312;2024-01-16T09:21:50;94885.84;;;4.59;60.83
11124;BME280;5616;42.692;23.312;2024-01-16T09:24:16;94887.59;;;4.58;60.15
11124;BME280;5616;42.692;23.312;2024-01-16T09:26:41;94898.38;;;4.60;58.03
11124;BME280;5616;42.692;23.312;2024-01-16T09:29:09;94898.50;;;4.73;57.62
11124;BME280;5616;42.692;23.312;2024-01-16T09:31:34;94896.94;;;4.72;57.57
11124;BME280;5616;42.692;23.312;2024-01-16T09:34:01;94897.72;;;4.73;58.81
11124;BME280;5616;42.692;23.312;2024-01-16T09:36:27;94893.53;;;4.86;60.69
11124;BME280;5616;42.692;23.312;2024-01-16T09:38:52;94893.16;;;4.89;57.47
11124;BME280;5616;42.692;23.312;2024-01-16T09:41:18;94895.13;;;4.87;55.14
11124;BME280;5616;42.692;23.312;2024-01-16T09:43:44;94897.47;;;4.89;57.05
11124;BME280;5616;42.692;23.312;2024-01-16T09:46:11;94902.59;;;4.95;57.21
11124;BME280;5616;42.692;23.312;2024-01-16T09:48:38;94902.06;;;5.00;58.69
11124;BME280;5616;42.692;23.312;2024-01-16T09:51:03;94916.81;;;5.05;56.19
11124;BME280;5616;42.692;23.312;2024-01-16T09:53:29;94914.63;;;5.02;57.65
11124;BME280;5616;42.692;23.312;2024-01-16T09:56:01;94910.88;;;4.98;55.81
11124;BME280;5616;42.692;23.312;2024-01-16T09:58:27;94910.41;;;4.87;56.71
11124;BME280;5616;42.692;23.312;2024-01-16T10:00:54;94896.06;;;4.86;58.17
11124;BME280;5616;42.692;23.312;2024-01-16T10:03:20;94900.56;;;4.84;56.39
11124;BME280;5616;42.692;23.312;2024-01-16T10:05:47;94899.09;;;4.97;58.05
11124;BME280;5616;42.692;23.312;2024-01-16T10:08:13;94896.84;;;5.08;59.20
11124;BME280;5616;42.692;23.312;2024-01-16T10:10:38;94896.50;;;5.18;57.57
11124;BME280;5616;42.692;23.312;2024-01-16T10:13:05;94892.03;;;5.20;55.93
11124;BME280;5616;42.692;23.312;2024-01-16T10:15:31;94885.22;;;5.27;56.97
11124;BME280;5616;42.692;23.312;2024-01-16T10:17:57;94891.91;;;5.28;53.33
11124;BME280;5616;42.692;23.312;2024-01-16T10:20:34;94904.28;;;5.31;54.04
11124;BME280;5616;42.692;23.312;2024-01-16T10:23:00;94912.41;;;5.41;55.05
11124;BME280;5616;42.692;23.312;2024-01-16T10:25:26;94914.03;;;5.49;55.52
11124;BME280;5616;42.692;23.312;2024-01-16T10:28:04;94917.66;;;5.39;53.54
11124;BME280;5616;42.692;23.312;2024-01-16T10:30:30;94910.63;;;5.41;53.33
11124;BME280;5616;42.692;23.312;2024-01-16T10:33:12;94916.38;;;5.50;54.67
11124;BME280;5616;42.692;23.312;2024-01-16T10:35:37;94913.59;;;5.45;55.92
11124;BME280;5616;42.692;23.312;2024-01-16T10:38:03;94906.16;;;5.50;53.73
11124;BME280;5616;42.692;23.312;2024-01-16T10:40:28;94918.78;;;5.58;53.21
11124;BME280;5616;42.692;23.312;2024-01-16T10:43:03;94905.50;;;5.69;54.32
11124;BME280;5616;42.692;23.312;2024-01-16T10:45:29;94910.63;;;5.76;53.71
11124;BME280;5616;42.692;23.312;2024-01-16T10:48:12;94918.22;;;5.63;55.99
11124;BME280;5616;42.692;23.312;2024-01-16T10:50:38;94912.56;;;5.67;53.76
11124;BME280;5616;42.692;23.312;2024-01-16T10:53:05;94912.06;;;5.78;53.71
11124;BME280;5616;42.692;23.312;2024-01-16T10:55:37;94904.06;;;5.88;56.36
11124;BME280;5616;42.692;23.312;2024-01-16T10:58:07;94885.53;;;5.79;55.83
11124;BME280;5616;42.692;23.312;2024-01-16T11:00:35;94893.88;;;5.95;55.33
11124;BME280;5616;42.692;23.312;2024-01-16T11:03:06;94912.38;;;5.97;53.25
11124;BME280;5616;42.692;23.312;2024-01-16T11:05:33;94919.03;;;5.98;55.12
11124;BME280;5616;42.692;23.312;2024-01-16T11:07:59;94917.38;;;5.83;56.15
11124;BME280;5616;42.692;23.312;2024-01-16T11:10:30;94915.44;;;5.85;53.98
11124;BME280;5616;42.692;23.312;2024-01-16T11:13:00;94913.09;;;5.90;54.22
11124;BME280;5616;42.692;23.312;2024-01-16T11:15:25;94929.22;;;5.91;52.42
11124;BME280;5616;42.692;23.312;2024-01-16T11:17:56;94933.78;;;5.96;52.81
11124;BME280;5616;42.692;23.312;2024-01-16T11:20:26;94915.50;;;5.99;52.92
11124;BME280;5616;42.692;23.312;2024-01-16T11:22:53;94922.97;;;5.94;54.14
11124;BME280;5616;42.692;23.312;2024-01-16T11:25:31;94938.63;;;5.90;54.63
11124;BME280;5616;42.692;23.312;2024-01-16T11:28:07;94927.31;;;6.00;54.62
11124;BME280;5616;42.692;23.312;2024-01-16T11:30:33;94921.25;;;6.01;52.19
11124;BME280;5616;42.692;23.312;2024-01-16T11:32:59;94925.75;;;6.05;51.62
11124;BME280;5616;42.692;23.312;2024-01-16T11:35:36;94927.91;;;6.02;54.68
11124;BME280;5616;42.692;23.312;2024-01-16T11:38:17;94930.44;;;6.02;54.30
11124;BME280;5616;42.692;23.312;2024-01-16T11:40:44;94921.81;;;6.03;53.44
11124;BME280;5616;42.692;23.312;2024-01-16T11:46:01;94938.88;;;5.96;55.36
11124;BME280;5616;42.692;23.312;2024-01-16T11:48:27;94927.31;;;6.00;58.50
11124;BME280;5616;42.692;23.312;2024-01-16T11:50:53;94940.47;;;5.97;55.74
11124;BME280;5616;42.692;23.312;2024-01-16T11:53:38;94944.81;;;6.03;56.50
11124;BME280;5616;42.692;23.312;2024-01-16T11:59:14;94937.56;;;6.13;54.79
11124;BME280;5616;42.692;23.312;2024-01-16T12:01:45;94940.50;;;6.10;52.62
11124;BME280;5616;42.692;23.312;2024-01-16T12:04:11;94929.88;;;6.00;52.27
11124;BME280;5616;42.692;23.312;2024-01-16T12:06:37;94955.81;;;5.75;53.10
11124;BME280;5616;42.692;23.312;2024-01-16T12:09:15;94959.78;;;5.84;52.01
11124;BME280;5616;42.692;23.312;2024-01-16T12:11:43;94960.44;;;5.86;52.57
11124;BME280;5616;42.692;23.312;2024-01-16T12:14:11;94968.84;;;5.87;53.20
11124;BME280;5616;42.692;23.312;2024-01-16T12:16:37;94977.56;;;5.93;53.40
11124;BME280;5616;42.692;23.312;2024-01-16T12:21:39;94957.50;;;5.89;54.99
11124;BME280;5616;42.692;23.312;2024-01-16T12:24:05;94950.44;;;5.91;54.21
11124;BME280;5616;42.692;23.312;2024-01-16T12:26:31;94966.84;;;5.82;54.93
11124;BME280;5616;42.692;23.312;2024-01-16T12:29:00;94959.00;;;5.84;53.83
11124;BME280;5616;42.692;23.312;2024-01-16T12:31:26;94970.00;;;5.84;54.75
11124;BME280;5616;42.692;23.312;2024-01-16T12:33:52;94973.19;;;5.86;53.55
11124;BME280;5616;42.692;23.312;2024-01-16T12:36:17;94965.66;;;5.78;53.61
11124;BME280;5616;42.692;23.312;2024-01-16T12:38:43;94969.34;;;5.76;53.84
11124;BME280;5616;42.692;23.312;2024-01-16T12:41:10;94976.28;;;5.82;54.29
11124;BME280;5616;42.692;23.312;2024-01-16T12:43:37;94985.38;;;5.91;54.63
11124;BME280;5616;42.692;23.312;2024-01-16T12:46:03;94990.09;;;5.94;55.52
11124;BME280;5616;42.692;23.312;2024-01-16T12:48:28;94983.81;;;5.90;53.24
11124;BME280;5616;42.692;23.312;2024-01-16T12:51:03;94975.09;;;5.84;55.24
11124;BME280;5616;42.692;23.312;2024-01-16T12:53:29;94969.16;;;5.77;54.58
11124;BME280;5616;42.692;23.312;2024-01-16T12:56:00;94975.09;;;5.84;55.50
11124;BME280;5616;42.692;23.312;2024-01-16T12:58:37;94966.13;;;5.88;53.09
11124;BME280;5616;42.692;23.312;2024-01-16T13:03:48;94980.56;;;6.03;56.28
11124;BME280;5616;42.692;23.312;2024-01-16T13:06:17;94978.38;;;6.00;53.60
11124;BME280;5616;42.692;23.312;2024-01-16T13:08:44;94984.06;;;6.02;53.68
11124;BME280;5616;42.692;23.312;2024-01-16T13:11:09;94994.91;;;6.04;55.62
11124;BME280;5616;42.692;23.312;2024-01-16T13:13:36;94987.09;;;6.12;52.95
11124;BME280;5616;42.692;23.312;2024-01-16T13:16:04;94994.56;;;6.13;53.85